Time;durP1;ratioP1;P1;durP2;ratioP2;P2;SDS_P1;SDS_P2;PMS_P1;PMS_P2;Temp;Humidity;BMP_temperature;BMP_pressure;BME280_temperature;BME280_humidity;BME280_pressure;Samples;Min_cycle;Max_cycle;Signal;HPM_P1;HPM_P2
2023/10/28 00:00:18;;;;;;;0.25;0.10;;;10.00;72.10;;;;;;5072384;28;20023;-72
2023/10/28 00:02:44;;;;;;;2.72;0.38;;;10.00;72.10;;;;;;5072446;28;20028;-72
2023/10/28 00:05:10;;;;;;;2.05;0.35;;;10.00;71.40;;;;;;5073146;28;20024;-72
2023/10/28 00:07:35;;;;;;;0.95;0.50;;;10.00;71.60;;;;;;5075994;28;20509;-71
2023/10/28 00:10:02;;;;;;;1.38;0.30;;;10.00;71.10;;;;;;5075840;28;20017;-70
2023/10/28 00:12:28;;;;;;;2.55;0.50;;;10.00;71.10;;;;;;5075852;28;20024;-70
2023/10/28 00:14:54;;;;;;;2.08;0.47;;;10.10;71.50;;;;;;5076075;28;20488;-71
2023/10/28 00:17:19;;;;;;;2.95;0.40;;;10.00;71.40;;;;;;5075927;28;20377;-70
2023/10/28 00:19:46;;;;;;;2.95;0.65;;;10.00;71.40;;;;;;5075868;28;20032;-70
2023/10/28 00:22:12;;;;;;;2.38;0.70;;;10.00;71.40;;;;;;5075797;28;20044;-70
2023/10/28 00:24:38;;;;;;;1.73;0.50;;;10.00;71.80;;;;;;5076070;28;20100;-70
2023/10/28 00:27:04;;;;;;;2.20;0.55;;;9.90;72.30;;;;;;5075670;28;20564;-70
2023/10/28 00:29:29;;;;;;;2.72;0.60;;;9.90;72.00;;;;;;5075967;28;20027;-71
2023/10/28 00:31:55;;;;;;;4.30;0.88;;;9.90;72.20;;;;;;5075596;28;20025;-70
2023/10/28 00:34:21;;;;;;;2.15;0.75;;;9.90;72.10;;;;;;5075673;28;20024;-71
2023/10/28 00:36:46;;;;;;;3.20;0.70;;;9.90;72.40;;;;;;5075553;28;20055;-72
2023/10/28 00:39:13;;;;;;;2.58;0.80;;;9.90;72.40;;;;;;5075595;28;20037;-71
2023/10/28 00:41:39;;;;;;;3.03;1.02;;;9.90;72.50;;;;;;5075428;28;20017;-71
2023/10/28 00:44:04;;;;;;;3.25;0.80;;;9.80;73.20;;;;;;5075431;28;20031;-70
2023/10/28 00:46:31;;;;;;;4.05;0.98;;;9.80;73.70;;;;;;5074669;28;20124;-70
2023/10/28 00:48:56;;;;;;;5.35;0.95;;;9.80;74.00;;;;;;5074909;28;20044;-70
2023/10/28 00:51:22;;;;;;;2.47;1.00;;;9.80;73.50;;;;;;5075252;28;20107;-72
2023/10/28 00:53:49;;;;;;;4.15;1.10;;;9.70;74.00;;;;;;5074023;28;20097;-71
2023/10/28 00:56:17;;;;;;;5.00;1.20;;;9.70;74.10;;;;;;5075203;28;20024;-71
2023/10/28 00:58:45;;;;;;;6.22;1.08;;;9.70;72.80;;;;;;5075430;28;20068;-71
2023/10/28 01:01:13;;;;;;;6.63;0.90;;;9.80;72.40;;;;;;5075593;28;20086;-72
2023/10/28 01:03:42;;;;;;;5.20;0.80;;;9.80;71.60;;;;;;5076816;28;20016;-71
2023/10/28 01:06:12;;;;;;;5.38;1.65;;;10.00;71.10;;;;;;5075029;28;20036;-70
2023/10/28 01:08:38;;;;;;;6.85;1.25;;;10.00;71.00;;;;;;5074903;28;20033;-70
2023/10/28 01:11:04;;;;;;;9.63;1.63;;;10.00;70.80;;;;;;5074920;28;20136;-70
2023/10/28 01:13:30;;;;;;;4.93;1.30;;;10.00;70.10;;;;;;5075150;28;20118;-71
2023/10/28 01:15:56;;;;;;;6.10;1.10;;;10.00;70.80;;;;;;5073410;28;20397;-70
2023/10/28 01:18:23;;;;;;;11.63;1.92;;;10.00;70.40;;;;;;5074099;28;20108;-71
2023/10/28 01:20:48;;;;;;;5.43;1.40;;;10.00;69.80;;;;;;5073509;28;20107;-71
2023/10/28 01:23:14;;;;;;;7.95;1.50;;;10.10;70.10;;;;;;5074766;28;20433;-71
2023/10/28 01:25:40;;;;;;;7.53;1.42;;;10.10;69.70;;;;;;5074709;28;20029;-72
2023/10/28 01:28:08;;;;;;;7.75;1.55;;;10.00;69.70;;;;;;5074489;28;20052;-72
2023/10/28 01:30:33;;;;;;;7.95;1.80;;;10.10;70.00;;;;;;5074697;28;20050;-72
2023/10/28 01:32:59;;;;;;;6.63;1.38;;;10.10;69.60;;;;;;5074464;28;20027;-71
2023/10/28 01:35:24;;;;;;;8.65;1.80;;;10.00;69.80;;;;;;5074435;28;20051;-71
2023/10/28 01:37:50;;;;;;;9.13;1.63;;;10.10;69.70;;;;;;5074364;28;20028;-71
2023/10/28 01:40:17;;;;;;;6.55;1.45;;;10.00;70.40;;;;;;5074429;28;20039;-71
2023/10/28 01:42:45;;;;;;;8.30;1.60;;;10.10;69.80;;;;;;5074557;28;20028;-71
2023/10/28 01:45:11;;;;;;;9.85;1.50;;;10.00;70.00;;;;;;5074258;28;20448;-71
2023/10/28 01:47:39;;;;;;;13.00;1.73;;;10.00;70.20;;;;;;5072831;28;20044;-70
2023/10/28 01:50:08;;;;;;;9.05;1.88;;;10.10;70.20;;;;;;5074078;28;20059;-72
2023/10/28 01:52:34;;;;;;;6.22;1.63;;;10.10;70.20;;;;;;5074197;28;20024;-72
2023/10/28 01:54:59;;;;;;;9.10;1.60;;;10.10;70.50;;;;;;5074473;28;20024;-72
2023/10/28 01:57:25;;;;;;;7.55;1.83;;;10.10;70.60;;;;;;5073948;28;20154;-72
2023/10/28 01:59:52;;;;;;;7.47;1.55;;;10.10;70.40;;;;;;5073998;28;20025;-71
2023/10/28 02:02:17;;;;;;;9.68;1.88;;;10.10;70.90;;;;;;5073833;28;20025;-72
2023/10/28 02:04:43;;;;;;;7.10;1.80;;;10.10;70.60;;;;;;5073622;28;20023;-71
2023/10/28 02:07:08;;;;;;;7.18;1.75;;;10.10;71.00;;;;;;5073991;28;20107;-73
2023/10/28 02:09:34;;;;;;;7.13;1.73;;;10.10;71.00;;;;;;5073873;28;20099;-72
2023/10/28 02:12:01;;;;;;;10.02;1.95;;;10.20;70.80;;;;;;5073661;28;20048;-72
2023/10/28 02:14:28;;;;;;;8.98;2.03;;;10.20;70.80;;;;;;5073634;28;20024;-72
2023/10/28 02:16:55;;;;;;;7.05;1.38;;;10.20;71.10;;;;;;5073595;28;20028;-71
2023/10/28 02:19:21;;;;;;;9.43;1.90;;;10.20;71.70;;;;;;5073608;28;20024;-72
2023/10/28 02:21:47;;;;;;;7.05;1.70;;;10.20;72.10;;;;;;5073629;28;20028;-72
2023/10/28 02:24:13;;;;;;;7.88;1.45;;;10.10;72.70;;;;;;5073647;28;20025;-72
2023/10/28 02:26:38;;;;;;;5.43;1.45;;;10.10;73.00;;;;;;5073389;28;20028;-71
2023/10/28 02:29:04;;;;;;;8.30;1.70;;;10.10;73.10;;;;;;5073259;28;20036;-71
2023/10/28 02:31:30;;;;;;;6.72;1.80;;;10.10;73.40;;;;;;5073054;28;20100;-71
2023/10/28 02:33:56;;;;;;;7.05;1.67;;;10.10;72.90;;;;;;5073695;28;20048;-71
2023/10/28 02:36:22;;;;;;;5.20;1.30;;;10.10;73.10;;;;;;5044400;28;20037;-71
2023/10/28 02:38:47;;;;;;;4.00;1.20;;;10.10;73.40;;;;;;5033101;28;20026;-71
2023/10/28 02:41:14;;;;;;;5.05;1.27;;;10.10;73.80;;;;;;5033365;28;20116;-71
2023/10/28 02:43:40;;;;;;;8.65;1.65;;;10.00;73.50;;;;;;5033280;28;20029;-72
2023/10/28 02:46:06;;;;;;;6.20;1.35;;;10.00;74.10;;;;;;5033492;28;20029;-71
2023/10/28 02:48:32;;;;;;;5.55;1.70;;;10.10;73.80;;;;;;5033364;28;20478;-74
2023/10/28 02:51:05;;;;;;;6.70;1.50;;;10.10;73.90;;;;;;5033378;28;20079;-73
2023/10/28 02:53:31;;;;;;;6.45;1.48;;;10.00;74.30;;;;;;5033456;28;20029;-73
2023/10/28 02:55:57;;;;;;;5.50;1.33;;;10.00;74.80;;;;;;5033133;28;20079;-73
2023/10/28 02:58:23;;;;;;;9.73;2.03;;;10.00;73.70;;;;;;5033109;28;20017;-71
2023/10/28 03:00:48;;;;;;;5.43;1.27;;;10.00;73.50;;;;;;5033342;28;20021;-71
2023/10/28 03:03:14;;;;;;;5.22;1.00;;;10.10;73.20;;;;;;5033060;28;20021;-71
2023/10/28 03:05:39;;;;;;;4.15;1.30;;;10.10;72.70;;;;;;5031683;28;20021;-76
2023/10/28 03:08:05;;;;;;;4.72;1.15;;;10.20;72.20;;;;;;5033219;28;20037;-82
2023/10/28 03:10:31;;;;;;;5.53;1.10;;;10.20;72.70;;;;;;5033510;28;20054;-82
2023/10/28 03:12:56;;;;;;;4.47;1.25;;;10.20;71.80;;;;;;5033847;28;20060;-83
2023/10/28 03:15:24;;;;;;;9.77;1.70;;;10.30;70.90;;;;;;5032231;28;20116;-81
2023/10/28 03:17:50;;;;;;;5.35;1.00;;;10.30;70.90;;;;;;5033775;28;20030;-83
2023/10/28 03:20:19;;;;;;;6.38;1.52;;;10.30;71.20;;;;;;5033910;28;20036;-82
2023/10/28 03:22:44;;;;;;;5.28;0.90;;;10.30;71.50;;;;;;5033715;28;20390;-83
2023/10/28 03:25:10;;;;;;;4.50;0.93;;;10.30;71.20;;;;;;5032192;28;20017;-82
2023/10/28 03:27:36;;;;;;;4.78;1.23;;;10.30;70.70;;;;;;5034191;28;20071;-81
2023/10/28 03:30:01;;;;;;;3.72;0.95;;;10.30;70.90;;;;;;5033601;28;20036;-82
2023/10/28 03:32:27;;;;;;;5.38;1.23;;;10.30;70.70;;;;;;5033165;28;20025;-81
2023/10/28 03:34:52;;;;;;;6.88;1.20;;;10.30;69.80;;;;;;5033568;28;20433;-82
2023/10/28 03:37:18;;;;;;;6.68;1.52;;;10.30;70.30;;;;;;5035069;28;20049;-83
2023/10/28 03:39:44;;;;;;;2.97;0.88;;;10.40;69.70;;;;;;5035581;28;20371;-83
2023/10/28 03:42:11;;;;;;;2.95;1.10;;;10.30;70.20;;;;;;5038891;28;20457;-81
2023/10/28 03:44:36;;;;;;;7.45;1.38;;;10.30;70.00;;;;;;5038683;28;20025;-83
2023/10/28 03:47:04;;;;;;;3.85;0.93;;;10.30;71.50;;;;;;5041141;28;20102;-84
2023/10/28 03:49:30;;;;;;;4.80;1.02;;;10.20;70.90;;;;;;5040017;28;20029;-77
2023/10/28 03:51:55;;;;;;;4.60;0.80;;;10.20;70.80;;;;;;5037306;28;20037;-79
2023/10/28 03:54:21;;;;;;;5.68;1.25;;;10.20;71.00;;;;;;5036987;28;20032;-79
2023/10/28 03:56:47;;;;;;;6.38;1.10;;;10.20;70.40;;;;;;5036849;28;20425;-78
2023/10/28 03:59:13;;;;;;;6.00;1.33;;;10.30;70.10;;;;;;5037473;28;20026;-79
2023/10/28 04:01:40;;;;;;;3.20;0.90;;;10.30;69.80;;;;;;5038393;28;20017;-80
2023/10/28 04:04:07;;;;;;;4.18;0.75;;;10.30;70.20;;;;;;5039448;28;20088;-83
2023/10/28 04:06:32;;;;;;;5.72;1.13;;;10.30;70.00;;;;;;5048109;28;20021;-76
2023/10/28 04:08:59;;;;;;;3.10;0.90;;;10.30;70.40;;;;;;5052083;28;20038;-73
2023/10/28 04:11:24;;;;;;;3.30;0.90;;;10.30;70.40;;;;;;5048253;28;20037;-85
2023/10/28 04:13:50;;;;;;;5.65;1.20;;;10.30;70.40;;;;;;5045397;28;20089;-80
2023/10/28 04:16:16;;;;;;;3.15;0.98;;;10.30;71.00;;;;;;5042609;28;20109;-82
2023/10/28 04:18:41;;;;;;;5.13;1.08;;;10.30;70.20;;;;;;5037064;28;20021;-81
2023/10/28 04:21:07;;;;;;;4.25;1.00;;;10.30;70.10;;;;;;5037446;28;20030;-82
2023/10/28 04:23:32;;;;;;;6.22;1.02;;;10.20;70.10;;;;;;5037239;28;20450;-82
2023/10/28 04:25:58;;;;;;;6.60;1.13;;;10.20;70.50;;;;;;5036378;28;20026;-82
2023/10/28 04:28:23;;;;;;;5.90;1.00;;;10.20;70.20;;;;;;5036534;28;20378;-81
2023/10/28 04:30:56;;;;;;;3.95;0.80;;;10.20;70.70;;;;;;5036296;28;20378;-82
2023/10/28 04:33:23;;;;;;;4.53;0.63;;;10.20;69.90;;;;;;5036847;28;20037;-81
2023/10/28 04:35:48;;;;;;;3.42;0.80;;;10.30;69.20;;;;;;5036635;28;20022;-83
2023/10/28 04:38:14;;;;;;;5.90;1.10;;;10.30;69.90;;;;;;5036341;28;20036;-82
2023/10/28 04:40:40;;;;;;;5.20;1.23;;;10.20;69.40;;;;;;5036527;28;20030;-82
2023/10/28 04:43:06;;;;;;;3.58;0.73;;;10.30;69.80;;;;;;5035639;28;20401;-82
2023/10/28 04:45:31;;;;;;;2.60;0.73;;;10.30;69.30;;;;;;5036534;28;20025;-82
2023/10/28 04:47:57;;;;;;;3.55;0.90;;;10.30;69.50;;;;;;5035492;28;20044;-84
2023/10/28 04:50:22;;;;;;;3.33;0.90;;;10.20;69.40;;;;;;5037276;28;20032;-84
2023/10/28 04:52:48;;;;;;;5.70;0.80;;;10.20;69.70;;;;;;5035989;28;20026;-84
2023/10/28 04:55:14;;;;;;;4.05;0.98;;;10.20;70.20;;;;;;5039011;28;20079;-83
2023/10/28 04:57:40;;;;;;;3.50;0.82;;;10.20;70.10;;;;;;5042653;28;20037;-79
2023/10/28 05:00:07;;;;;;;6.63;0.90;;;10.20;69.80;;;;;;5038754;28;20025;-82
2023/10/28 05:02:34;;;;;;;6.32;0.90;;;10.10;69.90;;;;;;5035190;28;20045;-82
2023/10/28 05:05:01;;;;;;;4.60;0.63;;;10.10;69.80;;;;;;5036277;28;20025;-82
2023/10/28 05:07:26;;;;;;;6.15;1.35;;;10.10;70.30;;;;;;5035976;28;20038;-82
2023/10/28 05:09:52;;;;;;;3.78;1.15;;;10.10;70.00;;;;;;5038446;28;20041;-84
2023/10/28 05:12:18;;;;;;;5.88;1.17;;;10.10;70.30;;;;;;5038543;28;20045;-81
2023/10/28 05:14:44;;;;;;;2.67;0.70;;;10.00;70.40;;;;;;5043468;28;20029;-82
2023/10/28 05:17:10;;;;;;;3.50;1.05;;;10.00;70.40;;;;;;5056725;28;20024;-83
2023/10/28 05:19:37;;;;;;;4.75;0.98;;;9.90;70.70;;;;;;5056075;28;20032;-73
2023/10/28 05:22:03;;;;;;;3.92;1.00;;;9.90;70.80;;;;;;5056630;28;20025;-81
2023/10/28 05:24:29;;;;;;;5.55;1.20;;;9.90;70.90;;;;;;5056870;28;20075;-83
2023/10/28 05:26:56;;;;;;;3.90;1.25;;;9.90;70.90;;;;;;5057262;28;20112;-85
2023/10/28 05:29:21;;;;;;;4.22;1.15;;;9.90;70.60;;;;;;5055588;28;20049;-82
2023/10/28 05:31:47;;;;;;;2.30;0.80;;;10.00;70.30;;;;;;5054904;28;20028;-82
2023/10/28 05:34:12;;;;;;;9.77;1.20;;;10.00;69.90;;;;;;5055192;28;20086;-78
2023/10/28 05:36:38;;;;;;;4.82;0.90;;;10.00;70.30;;;;;;5054933;28;20135;-78
2023/10/28 05:39:04;;;;;;;4.30;0.93;;;10.00;70.00;;;;;;5054754;28;20072;-80
2023/10/28 05:41:30;;;;;;;3.35;0.90;;;10.00;70.20;;;;;;5055298;28;20029;-80
2023/10/28 05:43:56;;;;;;;6.90;1.20;;;10.00;70.10;;;;;;5054843;28;20035;-81
2023/10/28 05:46:24;;;;;;;5.82;1.30;;;10.00;69.60;;;;;;5054885;28;20036;-81
2023/10/28 05:48:50;;;;;;;7.70;1.70;;;10.00;70.10;;;;;;5054657;28;20041;-81
2023/10/28 05:51:16;;;;;;;4.30;0.90;;;10.00;70.00;;;;;;5054843;28;20024;-82
2023/10/28 05:53:42;;;;;;;3.30;1.02;;;10.10;69.90;;;;;;5054781;28;20032;-84
2023/10/28 05:56:07;;;;;;;5.93;0.95;;;10.10;69.70;;;;;;5053952;28;20104;-84
2023/10/28 05:58:33;;;;;;;4.65;1.00;;;10.10;69.70;;;;;;5053930;28;20021;-84
2023/10/28 06:00:59;;;;;;;4.47;1.17;;;10.20;69.40;;;;;;5055288;28;20062;-83
2023/10/28 06:03:26;;;;;;;4.43;1.10;;;10.20;69.30;;;;;;5054295;28;20020;-80
2023/10/28 06:05:52;;;;;;;6.25;0.70;;;10.10;69.60;;;;;;5054699;28;20029;-79
2023/10/28 06:08:18;;;;;;;3.00;0.85;;;10.20;69.70;;;;;;5057657;28;20051;-77
2023/10/28 06:10:45;;;;;;;4.97;1.05;;;10.20;69.50;;;;;;5055730;28;20045;-81
2023/10/28 06:13:11;;;;;;;3.38;0.98;;;10.20;70.00;;;;;;5056090;28;20032;-79
2023/10/28 06:15:37;;;;;;;4.22;1.05;;;10.30;69.80;;;;;;5057903;28;20028;-78
2023/10/28 06:18:04;;;;;;;4.00;1.10;;;10.30;69.60;;;;;;5057692;28;20033;-74
2023/10/28 06:20:30;;;;;;;4.50;0.80;;;10.30;69.50;;;;;;5054923;28;20017;-75
2023/10/28 06:22:56;;;;;;;4.95;0.95;;;10.30;69.90;;;;;;5054027;28;20032;-72
2023/10/28 06:25:21;;;;;;;5.00;1.05;;;10.30;70.40;;;;;;5053733;28;20029;-72
2023/10/28 06:27:47;;;;;;;4.13;1.30;;;10.30;70.10;;;;;;5053802;28;20086;-82
2023/10/28 06:30:14;;;;;;;6.47;0.88;;;10.30;69.50;;;;;;5054129;28;20070;-79
2023/10/28 06:32:40;;;;;;;2.90;1.17;;;10.40;69.40;;;;;;5053840;28;20050;-81
2023/10/28 06:35:06;;;;;;;5.38;1.27;;;10.40;69.80;;;;;;5054343;28;20378;-83
2023/10/28 06:37:32;;;;;;;7.05;1.60;;;10.40;69.50;;;;;;5054907;28;20021;-78
2023/10/28 06:39:58;;;;;;;5.80;1.00;;;10.40;69.00;;;;;;5054155;28;20021;-75
2023/10/28 06:42:24;;;;;;;4.68;1.08;;;10.40;68.80;;;;;;5053481;28;20040;-73
2023/10/28 06:44:50;;;;;;;5.43;1.15;;;10.50;69.10;;;;;;5053052;28;20449;-71
2023/10/28 06:47:16;;;;;;;5.15;1.10;;;10.40;70.90;;;;;;5051695;28;20508;-71
2023/10/28 06:49:42;;;;;;;4.45;0.85;;;10.30;72.30;;;;;;5053238;28;20016;-70
2023/10/28 06:52:08;;;;;;;3.70;1.15;;;10.30;72.90;;;;;;5053166;28;20537;-72
2023/10/28 06:54:34;;;;;;;2.20;0.90;;;10.10;73.40;;;;;;5053004;28;20458;-73
2023/10/28 06:56:59;;;;;;;3.35;1.10;;;10.10;73.90;;;;;;5051710;28;20059;-75
2023/10/28 06:59:25;;;;;;;5.03;1.05;;;10.10;72.50;;;;;;5053077;28;20469;-72
2023/10/28 07:01:52;;;;;;;6.75;1.20;;;10.20;72.90;;;;;;5053198;28;20469;-71
2023/10/28 07:04:17;;;;;;;3.35;1.15;;;10.20;72.70;;;;;;5053485;28;20082;-72
2023/10/28 07:06:43;;;;;;;5.10;1.08;;;10.20;73.40;;;;;;5053250;28;20316;-72
2023/10/28 07:09:09;;;;;;;12.43;2.58;;;10.20;73.40;;;;;;5053327;28;20419;-72
2023/10/28 07:11:34;;;;;;;5.03;1.10;;;10.40;74.60;;;;;;5052867;28;20128;-75
2023/10/28 07:14:00;;;;;;;3.65;1.45;;;10.40;72.40;;;;;;5052904;28;20394;-71
2023/10/28 07:16:27;;;;;;;3.72;1.38;;;10.50;73.10;;;;;;5052115;28;20017;-70
2023/10/28 07:18:53;;;;;;;4.22;1.13;;;10.60;71.20;;;;;;5053925;28;20472;-70
2023/10/28 07:21:18;;;;;;;7.32;1.30;;;10.60;69.90;;;;;;5053348;28;20048;-70
2023/10/28 07:23:44;;;;;;;6.20;1.08;;;10.70;70.20;;;;;;5052674;28;20158;-69
2023/10/28 07:26:12;;;;;;;4.90;0.95;;;10.80;69.10;;;;;;5053069;28;20025;-73
2023/10/28 07:28:38;;;;;;;4.75;1.23;;;10.80;69.00;;;;;;5052723;28;20029;-73
2023/10/28 07:31:05;;;;;;;3.97;1.00;;;11.00;69.10;;;;;;5052886;28;20039;-74
2023/10/28 07:33:31;;;;;;;3.20;0.90;;;11.00;68.80;;;;;;5052760;28;20059;-72
2023/10/28 07:36:01;;;;;;;3.53;1.23;;;10.90;68.80;;;;;;5053611;28;20033;-73
2023/10/28 07:38:27;;;;;;;2.80;0.80;;;11.10;67.50;;;;;;5056129;28;20161;-82
2023/10/28 07:40:53;;;;;;;5.22;1.23;;;11.10;66.40;;;;;;5057890;28;20494;-79
2023/10/28 07:43:18;;;;;;;2.90;1.20;;;11.10;66.10;;;;;;5051796;28;20145;-75
2023/10/28 07:45:48;;;;;;;7.75;1.20;;;11.10;65.90;;;;;;5051615;28;20075;-77
2023/10/28 07:48:14;;;;;;;4.93;1.15;;;11.20;65.40;;;;;;5052434;28;20504;-73
2023/10/28 07:50:40;;;;;;;4.13;1.10;;;11.30;65.60;;;;;;5052614;28;20025;-71
2023/10/28 07:53:06;;;;;;;2.75;0.70;;;11.40;65.30;;;;;;5052470;28;20029;-69
2023/10/28 07:55:32;;;;;;;6.20;1.45;;;11.50;64.50;;;;;;5052676;28;20108;-71
2023/10/28 07:57:57;;;;;;;3.63;1.30;;;11.40;64.70;;;;;;5052283;28;20503;-71
2023/10/28 08:00:23;;;;;;;6.82;1.65;;;11.40;64.70;;;;;;5051438;28;20029;-69
2023/10/28 08:02:49;;;;;;;6.25;1.58;;;11.30;64.90;;;;;;5052292;28;20097;-69
2023/10/28 08:05:15;;;;;;;4.05;1.20;;;11.30;64.90;;;;;;5052353;28;20023;-74
2023/10/28 08:07:41;;;;;;;8.95;1.20;;;11.30;65.30;;;;;;5052551;28;20191;-71
2023/10/28 08:10:08;;;;;;;6.18;1.50;;;11.30;64.90;;;;;;5052350;28;20025;-72
2023/10/28 08:12:34;;;;;;;7.20;1.60;;;11.50;64.60;;;;;;5051002;28;20036;-73
2023/10/28 08:15:00;;;;;;;5.82;1.70;;;11.50;64.40;;;;;;5051038;28;20025;-71
2023/10/28 08:17:26;;;;;;;5.38;1.20;;;11.60;64.10;;;;;;5052197;28;20099;-71
2023/10/28 08:19:52;;;;;;;5.50;1.63;;;11.50;63.50;;;;;;5050982;28;20017;-70
2023/10/28 08:22:17;;;;;;;3.40;1.10;;;11.50;64.40;;;;;;5052391;28;20490;-73
2023/10/28 08:24:44;;;;;;;4.88;1.30;;;11.70;63.60;;;;;;5052252;28;20021;-71
2023/10/28 08:27:10;;;;;;;3.90;1.30;;;11.80;63.40;;;;;;5055776;28;20032;-70
2023/10/28 08:29:35;;;;;;;7.57;1.42;;;11.80;63.00;;;;;;5057842;28;20080;-70
2023/10/28 08:32:01;;;;;;;2.53;0.93;;;11.80;63.90;;;;;;5055575;28;20021;-69
2023/10/28 08:34:26;;;;;;;6.70;1.23;;;11.80;62.80;;;;;;5056168;28;20041;-72
2023/10/28 08:36:52;;;;;;;6.70;1.00;;;11.80;63.00;;;;;;5055973;28;20033;-69
2023/10/28 08:39:19;;;;;;;7.78;1.35;;;11.90;63.10;;;;;;5055361;28;20109;-71
2023/10/28 08:41:46;;;;;;;4.05;1.50;;;12.00;62.40;;;;;;5055437;28;20048;-69
2023/10/28 08:44:14;;;;;;;9.40;1.42;;;12.00;61.60;;;;;;5055155;28;20060;-70
2023/10/28 08:46:41;;;;;;;7.45;1.33;;;12.00;61.70;;;;;;5055555;28;20071;-70
2023/10/28 08:49:12;;;;;;;4.20;1.00;;;12.10;61.90;;;;;;5055094;28;20051;-69
2023/10/28 08:51:42;;;;;;;7.05;1.60;;;12.20;60.40;;;;;;5054173;28;20029;-70
2023/10/28 08:54:10;;;;;;;5.60;1.67;;;12.40;60.70;;;;;;5055589;28;20025;-72
2023/10/28 08:56:41;;;;;;;5.18;1.50;;;12.60;59.80;;;;;;5055663;28;20040;-73
2023/10/28 08:59:07;;;;;;;5.50;1.40;;;12.80;59.60;;;;;;5055345;28;20486;-73
2023/10/28 09:01:33;;;;;;;6.00;1.67;;;12.60;59.20;;;;;;5055228;28;20021;-72
2023/10/28 09:04:01;;;;;;;3.88;1.40;;;12.70;59.10;;;;;;5055361;28;20027;-69
2023/10/28 09:06:28;;;;;;;5.38;1.45;;;12.90;59.90;;;;;;5055037;28;20045;-75
2023/10/28 09:08:55;;;;;;;5.22;1.42;;;12.90;59.70;;;;;;5054716;28;20035;-69
2023/10/28 09:11:22;;;;;;;7.28;1.90;;;12.80;59.70;;;;;;5054626;28;20053;-71
2023/10/28 09:13:47;;;;;;;8.95;1.90;;;12.70;59.10;;;;;;5054845;28;20032;-71
2023/10/28 09:16:16;;;;;;;5.72;1.50;;;12.60;59.80;;;;;;5054905;28;20258;-70
2023/10/28 09:18:44;;;;;;;4.57;1.50;;;12.50;60.50;;;;;;5054928;28;20025;-72
2023/10/28 09:21:11;;;;;;;2.42;0.80;;;12.50;60.20;;;;;;5054687;28;20025;-70
2023/10/28 09:23:38;;;;;;;6.18;1.70;;;12.40;60.40;;;;;;5054573;28;20031;-69
2023/10/28 09:26:08;;;;;;;4.68;1.42;;;12.40;60.90;;;;;;5054654;28;20025;-69
2023/10/28 09:28:33;;;;;;;5.63;1.60;;;12.40;60.30;;;;;;5054428;28;20037;-71
2023/10/28 09:30:59;;;;;;;6.90;1.70;;;12.50;60.20;;;;;;5054464;28;20113;-69
2023/10/28 09:33:27;;;;;;;7.10;1.80;;;12.40;59.80;;;;;;5054892;28;20523;-70
2023/10/28 09:35:56;;;;;;;3.50;1.17;;;12.50;60.00;;;;;;5054040;28;20024;-72
2023/10/28 09:38:25;;;;;;;5.22;1.65;;;12.60;59.10;;;;;;5053722;28;20021;-70
2023/10/28 09:40:50;;;;;;;7.93;2.10;;;12.60;58.80;;;;;;5055132;28;20017;-73
2023/10/28 09:43:16;;;;;;;4.72;1.75;;;12.50;59.20;;;;;;5054329;28;20021;-72
2023/10/28 09:45:46;;;;;;;7.38;1.75;;;12.50;59.70;;;;;;5054207;28;20017;-72
2023/10/28 09:48:16;;;;;;;4.75;1.65;;;12.50;59.00;;;;;;5054354;28;20178;-69
2023/10/28 09:50:48;;;;;;;6.38;2.00;;;12.60;59.40;;;;;;5053943;28;20017;-70
2023/10/28 09:53:36;;;;;;;4.72;1.65;;;12.60;59.40;;;;;;5054335;28;20389;-70
2023/10/28 09:56:03;;;;;;;7.18;1.75;;;12.70;57.70;;;;;;5052243;28;20504;-69
2023/10/28 09:58:28;;;;;;;8.57;1.60;;;12.70;57.00;;;;;;5054235;28;20029;-69
2023/10/28 10:01:17;;;;;;;6.47;1.55;;;12.80;57.40;;;;;;5054151;28;20108;-69
2023/10/28 10:04:11;;;;;;;5.68;1.60;;;12.80;57.30;;;;;;5053776;28;20041;-71
2023/10/28 10:06:37;;;;;;;8.25;3.10;;;12.70;57.70;;;;;;5053854;28;20043;-69
2023/10/28 10:09:06;;;;;;;5.97;2.28;;;12.70;59.00;;;;;;5053778;28;20371;-70
2023/10/28 10:11:32;;;;;;;7.50;2.72;;;12.70;58.20;;;;;;5053351;28;20486;-71
2023/10/28 10:14:08;;;;;;;5.00;1.55;;;12.80;58.30;;;;;;5054060;28;20436;-71
2023/10/28 10:16:54;;;;;;;6.75;1.40;;;12.90;57.10;;;;;;5054138;28;20107;-70
2023/10/28 10:19:27;;;;;;;6.32;1.92;;;12.90;57.70;;;;;;5053552;28;20053;-70
2023/10/28 10:21:53;;;;;;;7.13;2.30;;;12.90;57.70;;;;;;5053543;28;20108;-71
2023/10/28 10:24:20;;;;;;;8.25;2.38;;;12.90;57.50;;;;;;5053874;28;20107;-69
2023/10/28 10:26:56;;;;;;;10.30;2.10;;;12.90;57.50;;;;;;5052424;28;20032;-74
2023/10/28 10:29:22;;;;;;;8.85;3.17;;;12.80;58.20;;;;;;5054046;28;20112;-70
2023/10/28 10:31:51;;;;;;;6.60;2.35;;;12.80;57.40;;;;;;5053509;28;20429;-71
2023/10/28 10:34:34;;;;;;;5.18;2.03;;;12.70;58.50;;;;;;5053554;28;20033;-68
2023/10/28 10:37:00;;;;;;;5.50;1.63;;;12.80;58.00;;;;;;5053315;28;20478;-70
2023/10/28 10:39:26;;;;;;;5.55;2.05;;;12.70;57.90;;;;;;5053386;28;20033;-70
2023/10/28 10:41:55;;;;;;;5.85;1.73;;;12.70;57.90;;;;;;5053384;28;20071;-70
2023/10/28 10:44:22;;;;;;;11.60;4.30;;;12.80;57.20;;;;;;5053167;28;20103;-70
2023/10/28 10:46:48;;;;;;;5.32;1.98;;;12.80;57.50;;;;;;5053059;28;20035;-70
2023/10/28 10:49:14;;;;;;;9.73;2.33;;;12.90;57.80;;;;;;5054907;28;20394;-70
2023/10/28 10:51:40;;;;;;;7.80;2.35;;;13.10;61.10;;;;;;5071825;28;20036;-70
2023/10/28 10:54:06;;;;;;;9.00;2.08;;;13.20;57.60;;;;;;5071612;28;20028;-70
2023/10/28 10:56:31;;;;;;;8.38;2.00;;;13.40;64.60;;;;;;5073134;28;20395;-70
2023/10/28 10:58:58;;;;;;;8.15;1.85;;;13.50;60.40;;;;;;5072856;28;20147;-71
2023/10/28 11:01:25;;;;;;;9.80;2.60;;;13.70;59.00;;;;;;5073074;28;20475;-71
2023/10/28 11:03:51;;;;;;;7.43;1.75;;;13.80;56.70;;;;;;5071777;28;20111;-72
2023/10/28 11:06:17;;;;;;;8.98;1.98;;;13.90;58.20;;;;;;5073137;28;20522;-72
2023/10/28 11:08:42;;;;;;;14.02;2.92;;;13.80;53.00;;;;;;5072775;28;20046;-71
2023/10/28 11:11:08;;;;;;;7.60;1.83;;;13.70;55.60;;;;;;5072519;28;20475;-71
2023/10/28 11:13:33;;;;;;;6.68;2.22;;;13.70;54.50;;;;;;5072712;28;20028;-71
2023/10/28 11:15:59;;;;;;;8.60;1.98;;;13.60;54.40;;;;;;5072653;28;20029;-73
2023/10/28 11:18:26;;;;;;;7.53;1.92;;;13.50;54.40;;;;;;5072683;28;20023;-73
2023/10/28 11:20:52;;;;;;;7.07;2.17;;;13.40;54.30;;;;;;5064990;28;20095;-73
2023/10/28 11:23:18;;;;;;;6.75;2.03;;;13.40;55.10;;;;;;5042610;28;20049;-74
2023/10/28 11:25:48;;;;;;;6.28;1.55;;;13.40;55.40;;;;;;5036203;28;20032;-70
2023/10/28 11:28:14;;;;;;;7.63;2.22;;;13.40;56.00;;;;;;5032455;28;20030;-70
2023/10/28 11:30:47;;;;;;;6.80;1.88;;;13.60;56.60;;;;;;5031805;28;20027;-70
2023/10/28 11:33:15;;;;;;;7.63;1.75;;;13.60;55.20;;;;;;5033556;28;20343;-71
2023/10/28 11:35:40;;;;;;;6.93;1.92;;;13.70;54.50;;;;;;5032510;28;20021;-70
2023/10/28 11:38:07;;;;;;;6.13;1.77;;;13.70;55.00;;;;;;5032230;28;20030;-69
2023/10/28 11:40:33;;;;;;;9.77;2.53;;;13.70;54.40;;;;;;5032714;28;20386;-69
2023/10/28 11:43:03;;;;;;;9.68;1.90;;;13.80;56.90;;;;;;5030668;28;20025;-71
2023/10/28 11:45:29;;;;;;;6.80;1.70;;;13.90;54.20;;;;;;5046967;28;20040;-71
2023/10/28 11:47:54;;;;;;;5.82;1.58;;;14.00;53.70;;;;;;5052253;28;20040;-74
2023/10/28 11:50:21;;;;;;;5.57;1.70;;;14.30;54.20;;;;;;5052607;28;20021;-70
2023/10/28 11:52:47;;;;;;;4.90;1.80;;;14.60;52.60;;;;;;5052443;28;20438;-74
2023/10/28 11:55:13;;;;;;;4.78;1.75;;;14.80;51.10;;;;;;5051875;28;20025;-69
2023/10/28 11:57:38;;;;;;;6.13;1.63;;;14.90;52.90;;;;;;5052223;28;20027;-75
2023/10/28 12:00:05;;;;;;;9.02;2.08;;;14.80;51.90;;;;;;5052599;28;20047;-70
2023/10/28 12:02:30;;;;;;;8.05;2.38;;;14.90;53.70;;;;;;5054841;28;20025;-70
2023/10/28 12:04:56;;;;;;;5.18;1.80;;;14.90;55.00;;;;;;5055290;28;20025;-72
2023/10/28 12:07:21;;;;;;;6.95;1.90;;;14.90;53.90;;;;;;5055348;28;20496;-72
2023/10/28 12:09:47;;;;;;;7.65;1.60;;;14.70;51.00;;;;;;5055123;28;20040;-70
2023/10/28 12:12:13;;;;;;;6.28;2.00;;;14.60;50.80;;;;;;5054198;28;20075;-71
2023/10/28 12:14:38;;;;;;;9.95;2.10;;;14.60;51.90;;;;;;5055957;28;20620;-71
2023/10/28 12:17:04;;;;;;;7.80;2.03;;;14.60;52.20;;;;;;5054119;28;20116;-73
2023/10/28 12:19:30;;;;;;;9.45;1.98;;;14.60;52.50;;;;;;5054369;28;20029;-69
2023/10/28 12:21:55;;;;;;;7.00;1.83;;;14.40;51.10;;;;;;5037901;28;20029;-73
2023/10/28 12:24:21;;;;;;;6.13;1.85;;;14.40;52.70;;;;;;5055810;28;20025;-73
2023/10/28 12:26:47;;;;;;;7.43;1.88;;;14.60;52.20;;;;;;5055491;28;20048;-71
2023/10/28 12:29:13;;;;;;;6.15;1.90;;;14.80;51.80;;;;;;5055452;28;20482;-70
2023/10/28 12:31:39;;;;;;;7.18;1.92;;;14.90;50.70;;;;;;5055813;28;20067;-70
2023/10/28 12:34:04;;;;;;;7.57;1.70;;;14.90;51.10;;;;;;5055339;28;20511;-72
2023/10/28 12:36:30;;;;;;;7.53;1.60;;;15.10;50.90;;;;;;5048019;28;20025;-70
2023/10/28 12:38:56;;;;;;;9.05;2.00;;;15.70;49.70;;;;;;5044003;28;20022;-70
2023/10/28 12:41:21;;;;;;;7.72;1.60;;;16.40;49.00;;;;;;5037004;28;20112;-70
2023/10/28 12:43:47;;;;;;;6.70;1.63;;;16.30;46.60;;;;;;5040334;28;20065;-70